Pacific — WCO7745 — position and weather

sailwx.info

Track history (hours):
 
Tides and Currents Weather Stations Pressure Air Temp Water Temp Dewpoint Dewpoint Depression Visibility Wind Speed Wind Dir Waves Ship Positions

Pacific

Owner: WESTERN TOWBOAT CO, SEATTLE, WA. More information available from US FCC via Universal Licensing System and Coast Guard Vessel Documentation Center.

Last reported at 2018-Jun-19 14:36 UTC. Time now 2018-Jun-20 07:53 UTC.
Position N 47°40' W 122°23'.

; draft 4 m.

Type: Tow > 200 m length. MMSI: 366980170.

Date/timePositionNaut miles runAvg speedWind from/ knotsBaromVisibWave heightAir tempDewpointWater temp
2018-Jun-19 14:36N 47°40' W 122°23'0 0.7
2018-Jun-19 14:30N 47°40' W 122°23'0 0.0
2018-Jun-19 14:00N 47°40' W 122°23'0 0.9
2018-Jun-19 13:30N 47°40' W 122°24'1 2.5
2018-Jun-19 13:00N 47°41' W 122°25'2 4.3
2018-Jun-19 12:30N 47°39' W 122°27'3 5.7
2018-Jun-19 12:00N 47°36' W 122°27'3 5.6
2018-Jun-19 11:30N 47°33' W 122°27'3 6.1
2018-Jun-19 11:00N 47°31' W 122°29'3 6.7
2018-Jun-19 10:30N 47°28' W 122°31'3 6.5
2018-Jun-19 10:00N 47°25' W 122°32'3 6.4
2018-Jun-19 09:30N 47°21' W 122°32'4 7.7
2018-Jun-19 09:00N 47°17' W 122°33'4 8.3
2018-Jun-19 08:30N 47°14' W 122°35'3 6.6
2018-Jun-19 08:00N 47°11' W 122°38'3 5.5
2018-Jun-19 07:30N 47°08' W 122°39'0 0.4
2018-Jun-19 07:00N 47°08' W 122°39'1 1.1
2018-Jun-19 06:30N 47°09' W 122°38'0 0.0
2018-Jun-19 05:58N 47°09' W 122°38'0 0.0
2018-Jun-19 05:28N 47°09' W 122°38'0 0.0
2018-Jun-19 05:00N 47°09' W 122°38'1 1.1
2018-Jun-19 04:30N 47°08' W 122°39'0 0.9
2018-Jun-19 03:59N 47°09' W 122°39'1 1.8
2018-Jun-19 03:30N 47°09' W 122°39'1 2.8
2018-Jun-19 03:00N 47°08' W 122°40'1 1.0
2018-Jun-19 02:26N 47°08' W 122°39'0 0.6
2018-Jun-19 01:57N 47°08' W 122°39'1 2.8
2018-Jun-19 01:30N 47°09' W 122°39'3 5.6
2018-Jun-19 01:00N 47°12' W 122°36'510.0
2018-Jun-19 00:30N 47°16' W 122°33'4 8.8
2018-Jun-19 00:00N 47°21' W 122°33'3 6.4
2018-Jun-18 23:30N 47°24' W 122°32'3 6.8
2018-Jun-18 23:00N 47°27' W 122°31'3 7.0
2018-Jun-18 22:30N 47°30' W 122°29'3 7.0
2018-Jun-18 22:00N 47°34' W 122°28'4 7.4
2018-Jun-18 21:30N 47°37' W 122°28'4 7.3
2018-Jun-18 21:00N 47°41' W 122°25'1 2.5
2018-Jun-18 20:30N 47°40' W 122°24'0 0.9
2018-Jun-18 20:00N 47°40' W 122°23'1 2.0
2018-Jun-18 19:30N 47°39' W 122°22'  
2018-Jun-16 02:46N 47°39' W 122°22'1 5.9
2018-Jun-16 02:30N 47°40' W 122°24'2 3.9
2018-Jun-16 02:00N 47°39' W 122°27'5 9.8
2018-Jun-16 01:30N 47°35' W 122°22'2 3.7
2018-Jun-16 01:00N 47°37' W 122°24'3 5.9
2018-Jun-16 00:31N 47°39' W 122°27'3 5.9
2018-Jun-16 00:01N 47°42' W 122°28'3 6.1
2018-Jun-15 23:30N 47°45' W 122°27'3 6.2
2018-Jun-15 23:00N 47°48' W 122°28'3 6.1
2018-Jun-15 22:30N 47°51' W 122°29'3 6.4
2018-Jun-15 22:00N 47°54' W 122°30'31 3.8
2018-Jun-15 14:00N 48°23' W 122°46'3 6.0
2018-Jun-15 13:28N 48°26' W 122°45'3 6.4
2018-Jun-15 13:00N 48°29' W 122°44'3 6.0
2018-Jun-15 12:30N 48°32' W 122°45'3 5.8
2018-Jun-15 12:00N 48°35' W 122°45'3 5.4
2018-Jun-15 11:30N 48°37' W 122°45'2 4.8
2018-Jun-15 11:01N 48°40' W 122°44'3 5.3
2018-Jun-15 10:31N 48°42' W 122°45'30 5.8
2018-Jun-15 05:26N 49°01' W 123°19'4 6.4
2018-Jun-15 04:49N 49°04' W 123°23'2 6.2
2018-Jun-15 04:30N 49°05' W 123°25'3 5.8
2018-Jun-15 03:59N 49°08' W 123°28'3 5.3
2018-Jun-15 03:25N 49°10' W 123°30'7 0.7
2018-Jun-14 17:50N 49°06' W 123°22'3 7.6
2018-Jun-14 17:25N 49°04' W 123°19'8 7.5
2018-Jun-14 16:21N 48°59' W 123°10'2 6.6
2018-Jun-14 15:59N 48°57' W 123°07'15 6.8
2018-Jun-14 13:46N 48°47' W 122°50'2 7.6
2018-Jun-14 13:26N 48°46' W 122°47'3 7.8
2018-Jun-14 13:00N 48°43' W 122°44'4 7.7
2018-Jun-14 12:30N 48°39' W 122°43'4 8.0
2018-Jun-14 12:00N 48°35' W 122°45'4 8.2
2018-Jun-14 11:29N 48°31' W 122°45'4 8.5
2018-Jun-14 10:58N 48°26' W 122°44'5 8.5
2018-Jun-14 10:25N 48°22' W 122°45'4 7.7
2018-Jun-14 09:53N 48°18' W 122°46'4 6.7
2018-Jun-14 09:21N 48°14' W 122°48'14 6.4
2018-Jun-14 07:11N 48°02' W 122°37'3 8.5
2018-Jun-14 06:50N 47°60' W 122°36'4 9.3
2018-Jun-14 06:27N 47°57' W 122°32'4 8.7
2018-Jun-14 06:00N 47°54' W 122°28'4 8.7
2018-Jun-14 05:30N 47°50' W 122°27'4 8.5
2018-Jun-14 05:00N 47°46' W 122°26'5 9.1
2018-Jun-14 04:30N 47°41' W 122°27'4 8.5
2018-Jun-14 04:00N 47°37' W 122°25'2 3.8
2018-Jun-14 03:30N 47°36' W 122°23'5 9.9
2018-Jun-14 03:00N 47°40' W 122°27'2 3.8
2018-Jun-14 02:30N 47°40' W 122°24'1 2.8
2018-Jun-14 02:00N 47°39' W 122°22'0 0.0
2018-Jun-14 01:31N 47°39' W 122°22'0 0.0
2018-Jun-14 01:00N 47°39' W 122°22'0 0.0
2018-Jun-14 00:30N 47°39' W 122°22'0 0.0
2018-Jun-14 00:00N 47°39' W 122°22'0 0.0
2018-Jun-13 23:30N 47°39' W 122°22'0 0.0
2018-Jun-13 23:00N 47°39' W 122°22'0 0.0
2018-Jun-13 22:31N 47°39' W 122°22'0 0.0
2018-Jun-12 09:01N 47°39' W 122°22'0 0.0
2018-Jun-12 09:00N 47°39' W 122°22'0 0.4
2018-Jun-12 08:30N 47°39' W 122°22'1 2.9
2018-Jun-12 08:00N 47°40' W 122°24'1 1.1
2018-Jun-12 07:30N 47°40' W 122°24'1 2.7
2018-Jun-12 07:00N 47°40' W 122°26'2 4.8
2018-Jun-12 06:30N 47°38' W 122°27'3 6.2
2018-Jun-12 06:00N 47°35' W 122°27'3 6.0
2018-Jun-12 05:30N 47°32' W 122°28'4 7.2
2018-Jun-12 05:00N 47°29' W 122°30'3 6.9
2018-Jun-12 04:30N 47°26' W 122°32'3 7.0
2018-Jun-12 04:00N 47°22' W 122°32'4 7.3
2018-Jun-12 03:30N 47°18' W 122°33'4 8.1
2018-Jun-12 03:00N 47°15' W 122°34'4 7.2
2018-Jun-12 02:30N 47°11' W 122°37'3 6.5
2018-Jun-12 01:59N 47°08' W 122°39'0 0.9
2018-Jun-12 01:28N 47°08' W 122°39'0 0.7
2018-Jun-12 00:58N 47°08' W 122°39'0 0.3
2018-Jun-12 00:08N 47°09' W 122°38'0 0.0
2018-Jun-12 00:00N 47°09' W 122°38'0 0.0
2018-Jun-11 23:30N 47°09' W 122°38'0 0.0
2018-Jun-11 22:02N 47°09' W 122°38'0 0.0
2018-Jun-11 21:52N 47°09' W 122°38'1 1.4
2018-Jun-11 21:28N 47°08' W 122°39'1 2.6
2018-Jun-11 21:00N 47°09' W 122°40'1 1.8
2018-Jun-11 20:25N 47°08' W 122°39'1 3.3
2018-Jun-11 20:00N 47°09' W 122°39'1 2.2
2018-Jun-11 19:30N 47°10' W 122°38'4 8.1
2018-Jun-11 19:00N 47°14' W 122°35'5 9.5
2018-Jun-11 18:30N 47°18' W 122°33'4 7.3
2018-Jun-11 18:00N 47°22' W 122°32'4 7.1
2018-Jun-11 17:30N 47°25' W 122°31'4 7.0
2018-Jun-11 17:00N 47°29' W 122°30'3 6.8
2018-Jun-11 16:30N 47°32' W 122°28'4 7.9
2018-Jun-11 16:00N 47°35' W 122°25'2 5.0
2018-Jun-11 15:30N 47°35' W 122°22'1 1.3
2018-Jun-11 15:00N 47°34' W 122°21'0 0.0
2018-Jun-11 14:27N 47°34' W 122°21'  
Track history (hours):
 
Tides and Currents Weather Stations Pressure Air Temp Water Temp Dewpoint Dewpoint Depression Visibility Wind Speed Wind Dir Waves Ship Positions

Pacific

Owner: WESTERN TOWBOAT CO, SEATTLE, WA. More information available from US FCC via Universal Licensing System and Coast Guard Vessel Documentation Center.

Last reported at 2018-Jun-19 14:36 UTC. Time now 2018-Jun-20 07:53 UTC.
Position N 47°40' W 122°23'.

; draft 4 m.

Type: Tow > 200 m length. MMSI: 366980170.

Date/timePositionNaut miles runAvg speedWind from/ knotsBaromVisibWave heightAir tempDewpointWater temp
2018-Jun-19 14:36N 47°40' W 122°23'0 0.7
2018-Jun-19 14:30N 47°40' W 122°23'0 0.0
2018-Jun-19 14:00N 47°40' W 122°23'0 0.9
2018-Jun-19 13:30N 47°40' W 122°24'1 2.5
2018-Jun-19 13:00N 47°41' W 122°25'2 4.3
2018-Jun-19 12:30N 47°39' W 122°27'3 5.7
2018-Jun-19 12:00N 47°36' W 122°27'3 5.6
2018-Jun-19 11:30N 47°33' W 122°27'3 6.1
2018-Jun-19 11:00N 47°31' W 122°29'3 6.7
2018-Jun-19 10:30N 47°28' W 122°31'3 6.5
2018-Jun-19 10:00N 47°25' W 122°32'3 6.4
2018-Jun-19 09:30N 47°21' W 122°32'4 7.7
2018-Jun-19 09:00N 47°17' W 122°33'4 8.3
2018-Jun-19 08:30N 47°14' W 122°35'3 6.6
2018-Jun-19 08:00N 47°11' W 122°38'3 5.5
2018-Jun-19 07:30N 47°08' W 122°39'0 0.4
2018-Jun-19 07:00N 47°08' W 122°39'1 1.1
2018-Jun-19 06:30N 47°09' W 122°38'0 0.0
2018-Jun-19 05:58N 47°09' W 122°38'0 0.0
2018-Jun-19 05:28N 47°09' W 122°38'0 0.0
2018-Jun-19 05:00N 47°09' W 122°38'1 1.1
2018-Jun-19 04:30N 47°08' W 122°39'0 0.9
2018-Jun-19 03:59N 47°09' W 122°39'1 1.8
2018-Jun-19 03:30N 47°09' W 122°39'1 2.8
2018-Jun-19 03:00N 47°08' W 122°40'1 1.0
2018-Jun-19 02:26N 47°08' W 122°39'0 0.6
2018-Jun-19 01:57N 47°08' W 122°39'1 2.8
2018-Jun-19 01:30N 47°09' W 122°39'3 5.6
2018-Jun-19 01:00N 47°12' W 122°36'510.0
2018-Jun-19 00:30N 47°16' W 122°33'4 8.8
2018-Jun-19 00:00N 47°21' W 122°33'3 6.4
2018-Jun-18 23:30N 47°24' W 122°32'3 6.8
2018-Jun-18 23:00N 47°27' W 122°31'3 7.0
2018-Jun-18 22:30N 47°30' W 122°29'3 7.0
2018-Jun-18 22:00N 47°34' W 122°28'4 7.4
2018-Jun-18 21:30N 47°37' W 122°28'4 7.3
2018-Jun-18 21:00N 47°41' W 122°25'1 2.5
2018-Jun-18 20:30N 47°40' W 122°24'0 0.9
2018-Jun-18 20:00N 47°40' W 122°23'1 2.0
2018-Jun-18 19:30N 47°39' W 122°22'  
2018-Jun-16 02:46N 47°39' W 122°22'1 5.9
2018-Jun-16 02:30N 47°40' W 122°24'2 3.9
2018-Jun-16 02:00N 47°39' W 122°27'5 9.8
2018-Jun-16 01:30N 47°35' W 122°22'2 3.7
2018-Jun-16 01:00N 47°37' W 122°24'3 5.9
2018-Jun-16 00:31N 47°39' W 122°27'3 5.9
2018-Jun-16 00:01N 47°42' W 122°28'3 6.1
2018-Jun-15 23:30N 47°45' W 122°27'3 6.2
2018-Jun-15 23:00N 47°48' W 122°28'3 6.1
2018-Jun-15 22:30N 47°51' W 122°29'3 6.4
2018-Jun-15 22:00N 47°54' W 122°30'31 3.8
2018-Jun-15 14:00N 48°23' W 122°46'3 6.0
2018-Jun-15 13:28N 48°26' W 122°45'3 6.4
2018-Jun-15 13:00N 48°29' W 122°44'3 6.0
2018-Jun-15 12:30N 48°32' W 122°45'3 5.8
2018-Jun-15 12:00N 48°35' W 122°45'3 5.4
2018-Jun-15 11:30N 48°37' W 122°45'2 4.8
2018-Jun-15 11:01N 48°40' W 122°44'3 5.3
2018-Jun-15 10:31N 48°42' W 122°45'30 5.8
2018-Jun-15 05:26N 49°01' W 123°19'4 6.4
2018-Jun-15 04:49N 49°04' W 123°23'2 6.2
2018-Jun-15 04:30N 49°05' W 123°25'3 5.8
2018-Jun-15 03:59N 49°08' W 123°28'3 5.3
2018-Jun-15 03:25N 49°10' W 123°30'7 0.7
2018-Jun-14 17:50N 49°06' W 123°22'3 7.6
2018-Jun-14 17:25N 49°04' W 123°19'8 7.5
2018-Jun-14 16:21N 48°59' W 123°10'2 6.6
2018-Jun-14 15:59N 48°57' W 123°07'15 6.8
2018-Jun-14 13:46N 48°47' W 122°50'2 7.6
2018-Jun-14 13:26N 48°46' W 122°47'3 7.8
2018-Jun-14 13:00N 48°43' W 122°44'4 7.7
2018-Jun-14 12:30N 48°39' W 122°43'4 8.0
2018-Jun-14 12:00N 48°35' W 122°45'4 8.2
2018-Jun-14 11:29N 48°31' W 122°45'4 8.5
2018-Jun-14 10:58N 48°26' W 122°44'5 8.5
2018-Jun-14 10:25N 48°22' W 122°45'4 7.7
2018-Jun-14 09:53N 48°18' W 122°46'4 6.7
2018-Jun-14 09:21N 48°14' W 122°48'14 6.4
2018-Jun-14 07:11N 48°02' W 122°37'3 8.5
2018-Jun-14 06:50N 47°60' W 122°36'4 9.3
2018-Jun-14 06:27N 47°57' W 122°32'4 8.7
2018-Jun-14 06:00N 47°54' W 122°28'4 8.7
2018-Jun-14 05:30N 47°50' W 122°27'4 8.5
2018-Jun-14 05:00N 47°46' W 122°26'5 9.1
2018-Jun-14 04:30N 47°41' W 122°27'4 8.5
2018-Jun-14 04:00N 47°37' W 122°25'2 3.8
2018-Jun-14 03:30N 47°36' W 122°23'5 9.9
2018-Jun-14 03:00N 47°40' W 122°27'2 3.8
2018-Jun-14 02:30N 47°40' W 122°24'1 2.8
2018-Jun-14 02:00N 47°39' W 122°22'0 0.0
2018-Jun-14 01:31N 47°39' W 122°22'0 0.0
2018-Jun-14 01:00N 47°39' W 122°22'0 0.0
2018-Jun-14 00:30N 47°39' W 122°22'0 0.0
2018-Jun-14 00:00N 47°39' W 122°22'0 0.0
2018-Jun-13 23:30N 47°39' W 122°22'0 0.0
2018-Jun-13 23:00N 47°39' W 122°22'0 0.0
2018-Jun-13 22:31N 47°39' W 122°22'0 0.0
2018-Jun-12 09:01N 47°39' W 122°22'0 0.0
2018-Jun-12 09:00N 47°39' W 122°22'0 0.4
2018-Jun-12 08:30N 47°39' W 122°22'1 2.9
2018-Jun-12 08:00N 47°40' W 122°24'1 1.1
2018-Jun-12 07:30N 47°40' W 122°24'1 2.7
2018-Jun-12 07:00N 47°40' W 122°26'2 4.8
2018-Jun-12 06:30N 47°38' W 122°27'3 6.2
2018-Jun-12 06:00N 47°35' W 122°27'3 6.0
2018-Jun-12 05:30N 47°32' W 122°28'4 7.2
2018-Jun-12 05:00N 47°29' W 122°30'3 6.9
2018-Jun-12 04:30N 47°26' W 122°32'3 7.0
2018-Jun-12 04:00N 47°22' W 122°32'4 7.3
2018-Jun-12 03:30N 47°18' W 122°33'4 8.1
2018-Jun-12 03:00N 47°15' W 122°34'4 7.2
2018-Jun-12 02:30N 47°11' W 122°37'3 6.5
2018-Jun-12 01:59N 47°08' W 122°39'0 0.9
2018-Jun-12 01:28N 47°08' W 122°39'0 0.7
2018-Jun-12 00:58N 47°08' W 122°39'0 0.3
2018-Jun-12 00:08N 47°09' W 122°38'0 0.0
2018-Jun-12 00:00N 47°09' W 122°38'0 0.0
2018-Jun-11 23:30N 47°09' W 122°38'0 0.0
2018-Jun-11 22:02N 47°09' W 122°38'0 0.0
2018-Jun-11 21:52N 47°09' W 122°38'1 1.4
2018-Jun-11 21:28N 47°08' W 122°39'1 2.6
2018-Jun-11 21:00N 47°09' W 122°40'1 1.8
2018-Jun-11 20:25N 47°08' W 122°39'1 3.3
2018-Jun-11 20:00N 47°09' W 122°39'1 2.2
2018-Jun-11 19:30N 47°10' W 122°38'4 8.1
2018-Jun-11 19:00N 47°14' W 122°35'5 9.5
2018-Jun-11 18:30N 47°18' W 122°33'4 7.3
2018-Jun-11 18:00N 47°22' W 122°32'4 7.1
2018-Jun-11 17:30N 47°25' W 122°31'4 7.0
2018-Jun-11 17:00N 47°29' W 122°30'3 6.8
2018-Jun-11 16:30N 47°32' W 122°28'4 7.9
2018-Jun-11 16:00N 47°35' W 122°25'2 5.0
2018-Jun-11 15:30N 47°35' W 122°22'1 1.3
2018-Jun-11 15:00N 47°34' W 122°21'0 0.0
2018-Jun-11 14:27N 47°34' W 122°21'  

Dump ship's entire track history